Locke Mills, Pennsylvania
Current Conditions -  °F | °C
As of 1:53 PM on Saturday 25 Oct 2014 (Local Time) from KUNV Reporting Station
Broken Clouds Broken Clouds  
Wind Chill: 64°   Ceiling: 4500
Heat Index: 64°   Visibility: 10mi
Dew Point: 46°   Wind: 20mph
Humidity: 52%   Direction: 270°W
Pressure: 29.79"   Gusts: 30mph
Location:  40.7567°N, 77.488°W
Report Text: KUNV 251753Z 27017G26KT 10SM BKN045 18/08 A2979
Loading
Personal Weather Stations






























Interactive Weather Map
Tropical Storm Tracking
New forecast layout! Learn more

10-Day Weather Forecast

Advertisements
Track Severe Weather on mobile